createdAt,value
2018-06-16T00:01:48.702Z,100908.00
2018-06-16T00:04:18.827Z,100907.00
2018-06-16T00:06:48.142Z,100910.00
2018-06-16T00:09:17.397Z,100914.00
2018-06-16T00:11:46.623Z,100910.00
2018-06-16T00:14:15.753Z,100920.00
2018-06-16T00:16:44.929Z,100914.00
2018-06-16T00:19:14.114Z,100920.00
2018-06-16T00:21:43.225Z,100915.00
2018-06-16T00:24:12.606Z,100911.00
2018-06-16T00:26:41.683Z,100914.00
2018-06-16T00:29:10.834Z,100919.00
2018-06-16T00:31:39.994Z,100912.00
2018-06-16T00:34:09.143Z,100912.00
2018-06-16T00:36:38.255Z,100915.00
2018-06-16T00:39:09.644Z,100907.00
2018-06-16T00:41:39.215Z,100913.00
2018-06-16T00:44:08.574Z,100905.00
2018-06-16T00:46:37.756Z,100898.00
2018-06-16T00:49:08.389Z,100899.00
2018-06-16T00:51:37.885Z,100893.00
2018-06-16T00:54:07.901Z,100897.00
2018-06-16T00:56:37.176Z,100884.00
2018-06-16T00:59:06.936Z,100882.00
2018-06-16T01:01:36.832Z,100883.00
2018-06-16T01:04:09.971Z,100887.00
2018-06-16T01:06:40.083Z,100883.00
2018-06-16T01:09:09.338Z,100881.00
2018-06-16T01:11:38.502Z,100890.00
2018-06-16T01:14:07.617Z,100877.00
2018-06-16T01:16:36.838Z,100880.00
2018-06-16T01:19:06.234Z,100872.00
2018-06-16T01:21:35.540Z,100870.00
2018-06-16T01:24:04.757Z,100876.00
2018-06-16T01:26:34.176Z,100875.00
2018-06-16T01:29:03.513Z,100870.00
2018-06-16T01:31:32.909Z,100869.00
2018-06-16T01:34:02.193Z,100863.00
2018-06-16T01:36:31.433Z,100864.00
2018-06-16T01:39:01.719Z,100864.00
2018-06-16T01:41:31.032Z,100791.00
2018-06-16T01:44:00.128Z,100864.00
2018-06-16T01:46:29.254Z,100872.00
2018-06-16T01:48:58.860Z,100870.00
2018-06-16T01:51:27.969Z,100869.00
2018-06-16T01:53:57.066Z,100865.00
2018-06-16T01:56:26.273Z,100871.00
2018-06-16T01:58:55.421Z,100861.00
2018-06-16T02:01:24.602Z,100867.00
2018-06-16T02:03:55.647Z,100873.00
2018-06-16T02:06:24.780Z,100865.00
2018-06-16T02:08:53.897Z,100867.00
2018-06-16T02:11:23.179Z,100871.00
2018-06-16T02:13:52.420Z,100871.00
2018-06-16T02:16:21.625Z,100871.00
2018-06-16T02:18:50.711Z,100868.00
2018-06-16T02:21:19.843Z,100857.00
2018-06-16T02:23:49.081Z,100869.00
2018-06-16T02:26:18.370Z,100864.00
2018-06-16T02:28:47.806Z,100867.00
2018-06-16T02:31:16.915Z,100859.00
2018-06-16T02:33:46.735Z,100859.00
2018-06-16T02:36:15.940Z,100864.00
2018-06-16T02:38:45.521Z,100862.00
2018-06-16T02:41:14.877Z,100864.00
2018-06-16T02:43:44.334Z,100857.00
2018-06-16T02:46:13.521Z,100856.00
2018-06-16T02:48:42.753Z,100858.00
2018-06-16T02:51:11.966Z,100855.00
2018-06-16T02:53:41.069Z,100854.00
2018-06-16T02:56:10.343Z,100861.00
2018-06-16T02:58:39.414Z,100860.00
2018-06-16T03:01:08.517Z,100857.00
2018-06-16T03:03:37.661Z,100856.00
2018-06-16T03:06:06.778Z,100849.00
2018-06-16T03:08:35.908Z,100855.00
2018-06-16T03:11:05.011Z,100858.00
2018-06-16T03:13:34.184Z,100854.00
2018-06-16T03:16:03.438Z,100849.00
2018-06-16T03:18:32.533Z,100854.00
2018-06-16T03:21:01.658Z,100847.00
2018-06-16T03:23:30.895Z,100858.00
2018-06-16T03:26:00.000Z,100853.00
2018-06-16T03:28:29.129Z,100852.00
2018-06-16T03:30:58.249Z,100849.00
2018-06-16T03:33:27.448Z,100834.00
2018-06-16T03:35:56.663Z,100846.00
2018-06-16T03:38:25.850Z,100844.00
2018-06-16T03:40:55.061Z,100837.00
2018-06-16T03:43:24.443Z,100844.00
2018-06-16T03:45:53.756Z,100844.00
2018-06-16T03:48:23.437Z,100843.00
2018-06-16T03:50:52.660Z,100839.00
2018-06-16T03:53:21.798Z,100844.00
2018-06-16T03:55:50.920Z,100830.00
2018-06-16T03:58:20.044Z,100839.00
2018-06-16T04:00:49.176Z,100837.00
2018-06-16T04:03:18.313Z,100831.00
2018-06-16T04:05:47.578Z,100845.00
2018-06-16T04:08:16.793Z,100833.00
2018-06-16T04:10:45.952Z,100838.00
2018-06-16T04:13:14.984Z,100831.00
2018-06-16T04:15:44.092Z,100830.00
2018-06-16T04:18:13.223Z,100825.00
2018-06-16T04:20:42.295Z,100817.00
2018-06-16T04:23:11.507Z,100822.00
2018-06-16T04:25:40.588Z,100818.00
2018-06-16T04:28:09.708Z,100810.00
2018-06-16T04:30:38.795Z,100820.00
2018-06-16T04:33:08.195Z,100817.00
2018-06-16T04:35:37.460Z,100809.00
2018-06-16T04:38:06.986Z,100806.00
2018-06-16T04:40:36.175Z,100809.00
2018-06-16T04:43:05.336Z,100813.00
2018-06-16T04:45:34.649Z,100813.00
2018-06-16T04:48:03.812Z,100807.00
2018-06-16T04:50:33.139Z,100817.00
2018-06-16T04:53:02.360Z,100806.00
2018-06-16T04:55:32.420Z,100809.00
2018-06-16T04:58:01.593Z,100808.00
2018-06-16T05:00:30.825Z,100809.00
2018-06-16T05:03:00.027Z,100804.00
2018-06-16T05:05:29.459Z,100806.00
2018-06-16T05:07:59.188Z,100801.00
2018-06-16T05:10:28.056Z,100796.00
2018-06-16T05:12:57.423Z,100786.00
2018-06-16T05:15:26.587Z,100793.00
2018-06-16T05:17:55.758Z,100797.00
2018-06-16T05:20:25.424Z,100791.00
2018-06-16T05:22:54.574Z,100797.00
2018-06-16T05:25:24.910Z,100784.00
2018-06-16T05:27:55.848Z,100793.00
2018-06-16T05:30:24.986Z,100785.00
2018-06-16T05:32:53.886Z,100797.00
2018-06-16T05:35:23.075Z,100789.00
2018-06-16T05:37:53.737Z,100786.00
2018-06-16T05:40:22.813Z,100786.00
2018-06-16T05:42:52.213Z,100782.00
2018-06-16T05:45:21.368Z,100778.00
2018-06-16T05:47:50.775Z,100779.00
2018-06-16T05:50:21.304Z,100778.00
2018-06-16T05:52:50.797Z,100786.00
2018-06-16T05:55:20.787Z,100783.00
2018-06-16T05:57:50.057Z,100780.00
2018-06-16T06:00:19.955Z,100768.00
2018-06-16T06:02:49.475Z,100773.00
2018-06-16T06:05:19.099Z,100777.00
2018-06-16T06:07:48.521Z,100772.00
2018-06-16T06:10:18.277Z,100766.00
2018-06-16T06:12:48.148Z,100770.00
2018-06-16T06:15:18.102Z,100774.00
2018-06-16T06:17:48.528Z,100772.00
2018-06-16T06:20:18.031Z,100780.00
2018-06-16T06:22:47.522Z,100782.00
2018-06-16T06:25:17.528Z,100773.00
2018-06-16T06:27:46.764Z,100782.00
2018-06-16T06:30:16.713Z,100777.00
2018-06-16T06:32:45.895Z,100787.00
2018-06-16T06:35:15.199Z,100781.00
2018-06-16T06:37:45.315Z,100782.00
2018-06-16T06:40:14.410Z,100783.00
2018-06-16T06:42:43.980Z,100771.00
2018-06-16T06:45:13.168Z,100773.00
2018-06-16T06:47:42.719Z,100768.00
2018-06-16T06:50:38.883Z,100765.00
2018-06-16T06:53:08.046Z,100768.00
2018-06-16T06:55:37.574Z,100758.00
2018-06-16T06:58:07.874Z,100760.00
2018-06-16T07:00:37.536Z,100759.00
2018-06-16T07:03:07.275Z,100762.00
2018-06-16T07:05:36.874Z,100755.00
2018-06-16T07:08:09.001Z,100761.00
2018-06-16T07:10:38.460Z,100748.00
2018-06-16T07:13:08.956Z,100759.00
2018-06-16T07:15:38.677Z,100757.00
2018-06-16T07:18:07.954Z,100756.00
2018-06-16T07:20:37.892Z,100763.00
2018-06-16T07:23:07.610Z,100750.00
2018-06-16T07:25:37.095Z,100755.00
2018-06-16T07:28:06.459Z,100751.00
2018-06-16T07:30:35.576Z,100748.00
2018-06-16T07:33:05.700Z,100753.00
2018-06-16T07:35:35.262Z,100757.00
2018-06-16T07:38:04.233Z,100755.00
2018-06-16T07:40:33.430Z,100748.00
2018-06-16T07:43:02.686Z,100752.00
2018-06-16T07:45:32.116Z,100745.00
2018-06-16T07:48:02.313Z,100739.00
2018-06-16T07:50:32.132Z,100739.00
2018-06-16T07:53:02.393Z,100739.00
2018-06-16T07:55:31.963Z,100734.00
2018-06-16T07:58:01.155Z,100736.00
2018-06-16T08:00:30.751Z,100730.00
2018-06-16T08:03:00.651Z,100733.00
2018-06-16T08:05:31.531Z,100737.00
2018-06-16T08:08:01.478Z,100729.00
2018-06-16T08:10:31.242Z,100740.00
2018-06-16T08:13:01.974Z,100729.00
2018-06-16T08:15:32.087Z,100734.00
2018-06-16T08:18:01.301Z,100738.00
2018-06-16T08:20:30.519Z,100730.00
2018-06-16T08:23:00.563Z,100734.00
2018-06-16T08:25:29.703Z,100735.00
2018-06-16T08:27:58.860Z,100723.00
2018-06-16T08:30:28.081Z,100723.00
2018-06-16T08:32:57.195Z,100722.00
2018-06-16T08:35:26.692Z,100723.00
2018-06-16T08:37:56.636Z,100726.00
2018-06-16T08:40:25.668Z,100722.00
2018-06-16T08:42:55.479Z,100723.00
2018-06-16T08:45:25.257Z,100720.00
2018-06-16T08:47:54.548Z,100723.00
2018-06-16T08:50:23.817Z,100721.00
2018-06-16T08:52:53.862Z,100727.00
2018-06-16T08:55:24.062Z,100718.00
2018-06-16T08:57:55.228Z,100719.00
2018-06-16T09:00:25.368Z,100716.00
2018-06-16T09:02:54.579Z,100716.00
2018-06-16T09:05:24.263Z,100714.00
2018-06-16T09:07:54.085Z,100714.00
2018-06-16T09:10:23.589Z,100715.00
2018-06-16T09:12:56.210Z,100717.00
2018-06-16T09:15:25.716Z,100707.00
2018-06-16T09:17:55.476Z,100714.00
2018-06-16T09:20:24.797Z,100711.00
2018-06-16T09:22:54.270Z,100704.00
2018-06-16T09:25:23.421Z,100710.00
2018-06-16T09:27:52.734Z,100705.00
2018-06-16T09:30:23.140Z,100710.00
2018-06-16T09:32:52.641Z,100712.00
2018-06-16T09:35:22.485Z,100709.00
2018-06-16T09:37:52.092Z,100711.00
2018-06-16T09:40:26.237Z,100708.00
2018-06-16T09:42:55.488Z,100717.00
2018-06-16T09:45:24.781Z,100725.00
2018-06-16T09:47:53.957Z,100720.00
2018-06-16T09:50:23.166Z,100727.00
2018-06-16T09:53:45.138Z,100723.00
2018-06-16T09:56:14.517Z,100722.00
2018-06-16T09:58:43.721Z,100719.00
2018-06-16T10:01:12.906Z,100724.00
2018-06-16T10:03:42.094Z,100719.00
2018-06-16T10:06:11.235Z,100719.00
2018-06-16T10:08:43.901Z,100712.00
2018-06-16T10:11:13.115Z,100715.00
2018-06-16T10:13:42.489Z,100721.00
2018-06-16T10:16:12.006Z,100709.00
2018-06-16T10:18:41.168Z,100706.00
2018-06-16T10:21:10.532Z,100703.00
2018-06-16T10:23:40.414Z,100698.00
2018-06-16T10:26:09.862Z,100697.00
2018-06-16T10:28:40.736Z,100697.00
2018-06-16T10:31:10.101Z,100696.00
2018-06-16T10:33:41.785Z,100691.00
2018-06-16T10:36:11.299Z,100696.00
2018-06-16T10:38:44.455Z,100695.00
2018-06-16T10:41:13.660Z,100685.00
2018-06-16T10:43:42.871Z,100693.00
2018-06-16T10:46:12.150Z,100684.00
2018-06-16T10:48:42.849Z,100681.00
2018-06-16T10:51:12.389Z,100678.00
2018-06-16T10:56:42.471Z,100678.00
2018-06-16T10:59:11.750Z,100677.00
2018-06-16T11:01:41.111Z,100680.00
2018-06-16T11:04:10.287Z,100670.00
2018-06-16T11:06:39.432Z,100673.00
2018-06-16T11:09:09.871Z,100664.00
2018-06-16T11:11:39.241Z,100674.00
2018-06-16T11:14:08.937Z,100675.00
2018-06-16T11:16:38.196Z,100678.00
2018-06-16T11:19:08.060Z,100678.00
2018-06-16T11:21:37.568Z,100674.00
2018-06-16T11:24:06.735Z,100662.00
2018-06-16T11:26:36.147Z,100658.00
2018-06-16T11:29:05.468Z,100652.00
2018-06-16T11:31:34.603Z,100659.00
2018-06-16T11:34:03.794Z,100671.00
2018-06-16T11:36:33.016Z,100676.00
2018-06-16T11:39:02.160Z,100678.00
2018-06-16T11:41:31.320Z,100682.00
2018-06-16T11:44:00.537Z,100673.00
2018-06-16T11:46:29.746Z,100669.00
2018-06-16T11:48:58.884Z,100663.00
2018-06-16T11:51:28.214Z,100672.00
2018-06-16T11:53:57.752Z,100682.00
2018-06-16T11:56:27.014Z,100686.00
2018-06-16T11:58:56.289Z,100686.00
2018-06-16T12:01:25.910Z,100684.00
2018-06-16T12:03:55.380Z,100659.00
2018-06-16T12:06:24.665Z,100674.00
2018-06-16T12:08:54.652Z,100676.00
2018-06-16T12:11:23.968Z,100672.00
2018-06-16T12:13:53.376Z,100669.00
2018-06-16T12:16:22.571Z,100666.00
2018-06-16T12:18:52.066Z,100654.00
2018-06-16T12:21:22.100Z,100649.00
2018-06-16T12:23:55.566Z,100648.00
2018-06-16T12:26:24.901Z,100642.00
2018-06-16T12:28:54.329Z,100653.00
2018-06-16T12:31:24.965Z,100643.00
2018-06-16T12:33:54.639Z,100645.00
2018-06-16T12:36:23.897Z,100638.00
2018-06-16T12:38:53.163Z,100642.00
2018-06-16T12:41:22.692Z,100636.00
2018-06-16T12:43:51.801Z,100630.00
2018-06-16T12:46:21.684Z,100628.00
2018-06-16T12:48:50.849Z,100626.00
2018-06-16T12:51:20.649Z,100625.00
2018-06-16T12:53:49.752Z,100621.00
2018-06-16T12:56:19.084Z,100626.00
2018-06-16T12:58:48.619Z,100621.00
2018-06-16T13:01:17.834Z,100621.00
2018-06-16T13:03:47.014Z,100620.00
2018-06-16T13:06:16.839Z,100617.00
2018-06-16T13:08:46.912Z,100614.00
2018-06-16T13:11:16.159Z,100613.00
2018-06-16T13:13:46.621Z,100611.00
2018-06-16T13:16:16.180Z,100606.00
2018-06-16T13:21:48.309Z,100599.00
2018-06-16T13:24:17.528Z,100597.00
2018-06-16T13:26:46.662Z,100599.00
2018-06-16T13:29:15.975Z,100593.00
2018-06-16T13:31:45.045Z,100594.00
2018-06-16T13:34:14.218Z,100590.00
2018-06-16T13:36:45.260Z,100589.00
2018-06-16T13:39:14.561Z,100587.00
2018-06-16T13:41:44.444Z,100579.00
2018-06-16T13:44:13.633Z,100577.00
2018-06-16T13:46:43.064Z,100575.00
2018-06-16T13:49:12.535Z,100570.00
2018-06-16T13:51:42.860Z,100573.00
2018-06-16T13:54:12.054Z,100568.00
2018-06-16T13:56:41.491Z,100565.00
2018-06-16T13:59:10.934Z,100572.00
2018-06-16T14:01:40.511Z,100570.00
2018-06-16T14:04:09.934Z,100561.00
2018-06-16T14:06:39.188Z,100558.00
2018-06-16T14:09:09.986Z,100559.00
2018-06-16T14:11:39.559Z,100553.00
2018-06-16T14:14:08.763Z,100548.00
2018-06-16T14:16:38.111Z,100545.00
2018-06-16T14:19:07.326Z,100550.00
2018-06-16T14:21:36.465Z,100551.00
2018-06-16T14:24:05.577Z,100544.00
2018-06-16T14:26:35.358Z,100529.00
2018-06-16T14:29:04.521Z,100538.00
2018-06-16T14:31:33.668Z,100533.00
2018-06-16T14:34:03.404Z,100536.00
2018-06-16T14:36:32.582Z,100531.00
2018-06-16T14:39:01.694Z,100534.00
2018-06-16T14:41:30.888Z,100529.00
2018-06-16T14:44:00.125Z,100521.00
2018-06-16T14:46:29.287Z,100530.00
2018-06-16T14:48:58.972Z,100533.00
2018-06-16T14:51:28.180Z,100533.00
2018-06-16T14:53:57.359Z,100538.00
2018-06-16T14:56:26.530Z,100535.00
2018-06-16T14:58:55.841Z,100535.00
2018-06-16T15:01:25.104Z,100532.00
2018-06-16T15:03:54.300Z,100531.00
2018-06-16T15:06:23.900Z,100534.00
2018-06-16T15:08:53.667Z,100526.00
2018-06-16T15:11:23.236Z,100529.00
2018-06-16T15:13:56.880Z,100528.00
2018-06-16T15:16:26.181Z,100517.00
2018-06-16T15:18:55.412Z,100520.00
2018-06-16T15:21:24.558Z,100533.00
2018-06-16T15:23:53.859Z,100521.00
2018-06-16T15:26:23.630Z,100519.00
2018-06-16T15:28:52.979Z,100511.00
2018-06-16T15:31:22.432Z,100510.00
2018-06-16T15:33:51.542Z,100512.00
2018-06-16T15:36:20.722Z,100514.00
2018-06-16T15:38:49.921Z,100509.00
2018-06-16T15:41:20.024Z,100503.00
2018-06-16T15:43:49.363Z,100507.00
2018-06-16T15:46:18.863Z,100509.00
2018-06-16T15:48:48.522Z,100515.00
2018-06-16T15:51:17.729Z,100503.00
2018-06-16T15:53:47.227Z,100516.00
2018-06-16T15:56:16.484Z,100505.00
2018-06-16T15:58:46.096Z,100505.00
2018-06-16T16:01:15.344Z,100513.00
2018-06-16T16:03:44.705Z,100502.00
2018-06-16T16:06:14.074Z,100500.00
2018-06-16T16:08:43.312Z,100502.00
2018-06-16T16:11:12.711Z,100498.00
2018-06-16T16:13:41.939Z,100499.00
2018-06-16T16:16:11.607Z,100493.00
2018-06-16T16:18:40.740Z,100504.00
2018-06-16T16:21:10.321Z,100504.00
2018-06-16T16:23:39.474Z,100498.00
2018-06-16T16:26:08.750Z,100494.00
2018-06-16T16:28:38.024Z,100490.00
2018-06-16T16:31:08.235Z,100490.00
2018-06-16T16:33:37.901Z,100491.00
2018-06-16T16:36:07.251Z,100482.00
2018-06-16T16:38:36.666Z,100480.00
2018-06-16T16:41:08.934Z,100486.00
2018-06-16T16:43:38.469Z,100477.00
2018-06-16T16:46:07.692Z,100487.00
2018-06-16T16:48:36.888Z,100484.00
2018-06-16T16:51:07.818Z,100476.00
2018-06-16T16:53:37.275Z,100474.00
2018-06-16T16:56:06.631Z,100478.00
2018-06-16T16:58:35.761Z,100476.00
2018-06-16T17:01:05.132Z,100475.00
2018-06-16T17:03:34.670Z,100480.00
2018-06-16T17:06:03.793Z,100484.00
2018-06-16T17:08:33.772Z,100487.00
2018-06-16T17:11:02.937Z,100491.00
2018-06-16T17:13:32.345Z,100481.00
2018-06-16T17:16:02.151Z,100476.00
2018-06-16T17:18:31.333Z,100486.00
2018-06-16T17:21:00.656Z,100485.00
2018-06-16T17:23:29.848Z,100481.00
2018-06-16T17:25:58.996Z,100479.00
2018-06-16T17:28:28.182Z,100482.00
2018-06-16T17:30:58.279Z,100475.00
2018-06-16T17:33:27.527Z,100481.00
2018-06-16T17:35:56.709Z,100481.00
2018-06-16T17:38:26.055Z,100480.00
2018-06-16T17:40:55.218Z,100476.00
2018-06-16T17:43:24.640Z,100477.00
2018-06-16T17:45:53.868Z,100474.00
2018-06-16T17:48:23.172Z,100484.00
2018-06-16T17:50:52.532Z,100476.00
2018-06-16T17:53:21.906Z,100476.00
2018-06-16T17:55:51.250Z,100476.00
2018-06-16T17:58:20.577Z,100482.00
2018-06-16T18:00:50.247Z,100487.00
2018-06-16T18:03:19.839Z,100487.00
2018-06-16T18:05:49.349Z,100489.00
2018-06-16T18:08:18.761Z,100498.00
2018-06-16T18:10:48.351Z,100512.00
2018-06-16T18:13:17.905Z,100506.00
2018-06-16T18:15:47.016Z,100507.00
2018-06-16T18:18:16.124Z,100519.00
2018-06-16T18:20:45.396Z,100513.00
2018-06-16T18:23:14.556Z,100526.00
2018-06-16T18:25:43.750Z,100522.00
2018-06-16T18:28:13.836Z,100524.00
2018-06-16T18:30:43.022Z,100526.00
2018-06-16T18:33:12.203Z,100532.00
2018-06-16T18:35:41.957Z,100530.00
2018-06-16T18:38:11.337Z,100536.00
2018-06-16T18:40:40.553Z,100544.00
2018-06-16T18:43:09.706Z,100552.00
2018-06-16T18:45:38.933Z,100543.00
2018-06-16T18:48:08.510Z,100551.00
2018-06-16T18:50:37.643Z,100542.00
2018-06-16T18:53:06.956Z,100547.00
2018-06-16T18:55:36.216Z,100545.00
2018-06-16T18:58:05.577Z,100550.00
2018-06-16T19:00:34.775Z,100547.00
2018-06-16T19:03:04.496Z,100556.00
2018-06-16T19:05:39.986Z,100555.00
2018-06-16T19:08:09.668Z,100561.00
2018-06-16T19:10:39.327Z,100559.00
2018-06-16T19:13:08.958Z,100569.00
2018-06-16T19:15:38.358Z,100562.00
2018-06-16T19:18:07.617Z,100573.00
2018-06-16T19:20:37.298Z,100577.00
2018-06-16T19:23:06.893Z,100573.00
2018-06-16T19:25:35.996Z,100566.00
2018-06-16T19:28:06.333Z,100571.00
2018-06-16T19:30:35.859Z,100568.00
2018-06-16T19:33:05.490Z,100566.00
2018-06-16T19:35:34.843Z,100527.00
2018-06-16T19:38:04.540Z,100572.00
2018-06-16T19:40:34.220Z,100578.00
2018-06-16T19:43:03.575Z,100578.00
2018-06-16T19:45:32.815Z,100575.00
2018-06-16T19:48:02.116Z,100573.00
2018-06-16T19:50:31.307Z,100580.00
2018-06-16T19:53:00.523Z,100583.00
2018-06-16T19:55:29.652Z,100582.00
2018-06-16T19:57:59.974Z,100586.00
2018-06-16T20:00:29.416Z,100577.00
2018-06-16T20:02:58.695Z,100588.00
2018-06-16T20:05:28.076Z,100580.00
2018-06-16T20:07:58.296Z,100597.00
2018-06-16T20:10:27.460Z,100595.00
2018-06-16T20:12:56.633Z,100583.00
2018-06-16T20:15:25.979Z,100579.00
2018-06-16T20:17:55.097Z,100580.00
2018-06-16T20:20:24.344Z,100580.00
2018-06-16T20:22:53.586Z,100575.00
2018-06-16T20:25:22.816Z,100568.00
2018-06-16T20:27:52.075Z,100573.00
2018-06-16T20:30:21.298Z,100574.00
2018-06-16T20:32:50.731Z,100577.00
2018-06-16T20:35:20.192Z,100570.00
2018-06-16T20:37:49.998Z,100570.00
2018-06-16T20:40:21.700Z,100571.00
2018-06-16T20:42:52.363Z,100578.00
2018-06-16T20:45:21.984Z,100574.00
2018-06-16T20:47:51.413Z,100571.00
2018-06-16T20:50:20.907Z,100575.00
2018-06-16T20:52:51.209Z,100578.00
2018-06-16T20:55:20.872Z,100575.00
2018-06-16T20:57:50.792Z,100571.00
2018-06-16T21:00:20.780Z,100563.00
2018-06-16T21:02:50.370Z,100569.00
2018-06-16T21:05:20.192Z,100565.00
2018-06-16T21:07:49.697Z,100553.00
2018-06-16T21:10:19.141Z,100556.00
2018-06-16T21:12:48.680Z,100550.00
2018-06-16T21:15:18.121Z,100542.00
2018-06-16T21:17:47.297Z,100548.00
2018-06-16T21:20:16.559Z,100526.00
2018-06-16T21:22:46.025Z,100543.00
2018-06-16T21:25:15.312Z,100543.00
2018-06-16T21:27:44.581Z,100547.00
2018-06-16T21:30:13.877Z,100537.00
2018-06-16T21:32:43.822Z,100537.00
2018-06-16T21:35:12.985Z,100540.00
2018-06-16T21:37:42.837Z,100536.00
2018-06-16T21:40:12.686Z,100542.00
2018-06-16T21:42:42.089Z,100542.00
2018-06-16T21:45:11.300Z,100539.00
2018-06-16T21:47:40.588Z,100539.00
2018-06-16T21:50:10.777Z,100540.00
2018-06-16T21:52:40.011Z,100540.00
2018-06-16T21:55:09.169Z,100535.00
2018-06-16T21:57:38.512Z,100549.00
2018-06-16T22:00:12.045Z,100548.00
2018-06-16T22:02:41.424Z,100544.00
2018-06-16T22:05:10.708Z,100550.00
2018-06-16T22:07:40.090Z,100544.00
2018-06-16T22:10:09.973Z,100538.00
2018-06-16T22:12:39.493Z,100541.00
2018-06-16T22:15:08.886Z,100545.00
2018-06-16T22:17:38.840Z,100550.00
2018-06-16T22:20:08.044Z,100546.00
2018-06-16T22:22:37.514Z,100556.00
2018-06-16T22:25:06.752Z,100552.00
2018-06-16T22:27:36.060Z,100545.00
2018-06-16T22:30:05.575Z,100525.00
2018-06-16T22:32:34.764Z,100530.00
2018-06-16T22:35:04.232Z,100546.00
2018-06-16T22:37:33.847Z,100544.00
2018-06-16T22:40:04.510Z,100554.00
2018-06-16T22:42:34.057Z,100558.00
2018-06-16T22:45:03.685Z,100552.00
2018-06-16T22:47:33.098Z,100549.00
2018-06-16T22:50:02.395Z,100551.00
2018-06-16T22:52:31.609Z,100563.00
2018-06-16T22:55:01.353Z,100563.00
2018-06-16T22:57:30.531Z,100557.00
2018-06-16T22:59:59.710Z,100556.00
2018-06-16T23:02:29.096Z,100555.00
2018-06-16T23:04:58.296Z,100560.00
2018-06-16T23:07:27.698Z,100569.00
2018-06-16T23:09:56.931Z,100581.00
2018-06-16T23:12:26.791Z,100581.00
2018-06-16T23:14:56.070Z,100590.00
2018-06-16T23:17:25.375Z,100582.00
2018-06-16T23:19:54.698Z,100569.00
2018-06-16T23:22:24.140Z,100566.00
2018-06-16T23:24:53.405Z,100560.00
2018-06-16T23:27:22.735Z,100573.00
2018-06-16T23:29:51.946Z,100572.00
2018-06-16T23:32:21.360Z,100571.00
2018-06-16T23:34:50.646Z,100574.00
2018-06-16T23:37:20.847Z,100577.00
2018-06-16T23:39:50.148Z,100578.00
2018-06-16T23:42:19.491Z,100588.00
2018-06-16T23:44:48.792Z,100577.00
2018-06-16T23:47:20.564Z,100581.00
2018-06-16T23:49:49.827Z,100594.00
2018-06-16T23:52:19.095Z,100596.00
2018-06-16T23:54:48.866Z,100590.00
2018-06-16T23:57:18.123Z,100580.00
2018-06-16T23:59:47.680Z,100587.00
